Time;durP1;ratioP1;P1;durP2;ratioP2;P2;SDS_P1;SDS_P2;PMS_P1;PMS_P2;Temp;Humidity;BMP_temperature;BMP_pressure;BME280_temperature;BME280_humidity;BME280_pressure;Samples;Min_cycle;Max_cycle;Signal;HPM_P1;HPM_P2
2022/05/01 00:01:39;;;;;;;12.80;9.70;;;8.10;99.90;;;;;;5074214;28;20382;-64
2022/05/01 00:04:05;;;;;;;13.05;9.40;;;8.10;99.90;;;;;;5072753;28;20079;-64
2022/05/01 00:06:34;;;;;;;14.25;10.10;;;8.10;99.90;;;;;;5074388;28;20053;-64
2022/05/01 00:09:03;;;;;;;10.57;9.48;;;8.00;99.90;;;;;;5074304;28;20048;-64
2022/05/01 00:11:30;;;;;;;14.88;10.38;;;8.00;99.90;;;;;;5072774;28;20049;-64
2022/05/01 00:13:57;;;;;;;13.30;9.63;;;8.00;99.90;;;;;;5072860;28;20557;-64
2022/05/01 00:16:23;;;;;;;15.07;10.20;;;8.00;99.90;;;;;;5073593;28;20049;-63
2022/05/01 00:18:48;;;;;;;13.38;9.93;;;8.00;99.90;;;;;;5074109;28;20053;-63
2022/05/01 00:21:14;;;;;;;13.05;10.23;;;8.00;99.90;;;;;;5073898;28;20052;-64
2022/05/01 00:23:40;;;;;;;12.07;9.90;;;7.90;99.90;;;;;;5072363;28;20074;-63
2022/05/01 00:26:07;;;;;;;11.63;9.32;;;7.90;99.90;;;;;;5073457;28;20090;-64
2022/05/01 00:28:34;;;;;;;12.40;10.73;;;7.90;99.90;;;;;;5072230;28;20060;-63
2022/05/01 00:31:01;;;;;;;12.07;9.82;;;7.90;99.90;;;;;;5072343;28;20087;-63
2022/05/01 00:36:26;;;;;;;13.88;9.95;;;7.90;99.90;;;;;;5073491;28;20440;-64
2022/05/01 00:38:57;;;;;;;16.33;10.82;;;7.90;99.90;;;;;;5073647;28;20048;-64
2022/05/01 00:41:26;;;;;;;11.95;10.50;;;7.90;99.90;;;;;;5073813;28;20040;-64
2022/05/01 00:44:08;;;;;;;14.23;10.68;;;7.90;99.90;;;;;;5073543;28;20051;-63
2022/05/01 00:46:39;;;;;;;13.60;10.55;;;7.90;99.90;;;;;;5073344;28;20067;-64
2022/05/01 00:49:08;;;;;;;14.10;11.13;;;7.90;99.90;;;;;;5073183;28;20197;-64
2022/05/01 00:51:41;;;;;;;12.13;10.52;;;7.80;99.90;;;;;;5073030;28;20473;-64
2022/05/01 00:54:07;;;;;;;13.95;11.35;;;7.90;99.90;;;;;;5073036;28;20048;-64
2022/05/01 00:56:35;;;;;;;13.38;11.05;;;7.80;99.90;;;;;;5073087;28;20071;-64
2022/05/01 00:59:01;;;;;;;13.30;10.82;;;7.80;99.90;;;;;;5073220;28;20052;-64
2022/05/01 01:01:27;;;;;;;15.40;11.18;;;7.80;99.90;;;;;;5072942;28;20057;-64
2022/05/01 01:03:54;;;;;;;12.40;10.30;;;7.80;99.90;;;;;;5071528;28;20049;-63
2022/05/01 01:06:20;;;;;;;12.95;11.50;;;7.80;99.90;;;;;;5072998;28;20052;-63
2022/05/01 01:08:46;;;;;;;14.55;11.35;;;7.80;99.90;;;;;;5072851;28;20044;-64
2022/05/01 01:11:12;;;;;;;12.07;10.60;;;7.80;99.90;;;;;;5072975;28;20450;-64
2022/05/01 01:13:37;;;;;;;17.60;11.93;;;7.80;99.90;;;;;;5072949;28;20040;-63
2022/05/01 01:16:09;;;;;;;16.17;11.25;;;7.80;99.90;;;;;;5072536;28;20102;-64
2022/05/01 01:18:34;;;;;;;15.70;12.77;;;7.80;99.90;;;;;;5072661;28;20558;-64
2022/05/01 01:21:00;;;;;;;14.48;12.05;;;7.80;99.90;;;;;;5073214;28;20060;-64
2022/05/01 01:23:26;;;;;;;13.98;12.43;;;7.80;99.90;;;;;;5071672;28;20049;-63
2022/05/01 01:25:52;;;;;;;13.55;12.15;;;7.80;99.90;;;;;;5072521;28;20064;-64
2022/05/01 01:28:18;;;;;;;15.77;12.23;;;7.80;99.90;;;;;;5071712;28;20052;-64
2022/05/01 01:33:30;;;;;;;13.70;11.68;;;7.80;99.90;;;;;;5072357;28;20053;-64
2022/05/01 01:36:00;;;;;;;17.08;12.93;;;7.80;99.90;;;;;;5072571;28;20059;-64
2022/05/01 01:38:26;;;;;;;17.23;12.85;;;7.80;99.90;;;;;;5072644;28;20056;-64
2022/05/01 01:40:54;;;;;;;19.60;12.55;;;7.80;99.90;;;;;;5072730;28;20500;-64
2022/05/01 01:43:27;;;;;;;14.68;11.45;;;7.70;99.90;;;;;;5072598;28;20059;-64
2022/05/01 01:45:57;;;;;;;17.23;12.20;;;7.70;99.90;;;;;;5071812;28;20501;-64
2022/05/01 01:48:23;;;;;;;17.25;12.40;;;7.70;99.90;;;;;;5072523;28;20052;-64
2022/05/01 01:51:03;;;;;;;18.08;13.15;;;7.70;99.90;;;;;;5072637;28;20400;-64
2022/05/01 01:53:30;;;;;;;16.02;12.98;;;7.70;99.90;;;;;;5072157;28;20056;-64
2022/05/01 01:55:57;;;;;;;16.60;12.35;;;7.70;99.90;;;;;;5072348;28;20060;-63
2022/05/01 01:58:24;;;;;;;15.60;12.15;;;7.70;99.90;;;;;;5072142;28;20550;-64
2022/05/01 02:00:49;;;;;;;18.13;13.23;;;7.70;99.90;;;;;;5072410;28;20700;-64
2022/05/01 02:03:15;;;;;;;15.73;12.75;;;7.70;99.90;;;;;;5072136;28;20076;-64
2022/05/01 02:05:41;;;;;;;18.98;14.02;;;7.70;99.90;;;;;;5072771;28;20052;-64
2022/05/01 02:08:08;;;;;;;15.68;12.25;;;7.70;99.90;;;;;;5070816;28;20060;-64
2022/05/01 02:10:34;;;;;;;14.20;12.13;;;7.70;99.90;;;;;;5072352;28;20061;-64
2022/05/01 02:13:00;;;;;;;14.85;12.48;;;7.70;99.90;;;;;;5072010;28;20505;-63
2022/05/01 02:15:33;;;;;;;17.02;13.32;;;7.70;99.90;;;;;;5072829;28;20057;-64
2022/05/01 02:18:00;;;;;;;17.92;13.45;;;7.70;99.90;;;;;;5058170;28;20102;-64
2022/05/01 02:20:27;;;;;;;16.75;13.30;;;7.70;99.90;;;;;;5076343;28;20060;-64
2022/05/01 02:22:53;;;;;;;15.55;11.98;;;7.70;99.90;;;;;;5076218;28;20064;-64
2022/05/01 02:25:23;;;;;;;16.45;13.40;;;7.70;99.90;;;;;;5076260;28;20059;-63
2022/05/01 02:27:49;;;;;;;18.50;12.50;;;7.60;99.90;;;;;;5074493;28;20044;-64
2022/05/01 02:30:15;;;;;;;15.57;13.80;;;7.60;99.90;;;;;;5075815;28;20060;-64
2022/05/01 02:32:41;;;;;;;15.60;12.93;;;7.60;99.90;;;;;;5073952;28;20064;-64
2022/05/01 02:35:08;;;;;;;17.45;14.13;;;7.60;99.90;;;;;;5076029;28;20046;-64
2022/05/01 02:37:34;;;;;;;16.35;13.48;;;7.60;99.90;;;;;;5075814;28;20067;-64
2022/05/01 02:40:00;;;;;;;19.08;14.50;;;7.60;99.90;;;;;;5076395;28;20052;-64
2022/05/01 02:42:26;;;;;;;17.00;14.05;;;7.70;99.90;;;;;;5074091;28;20055;-64
2022/05/01 02:44:51;;;;;;;14.45;11.85;;;7.60;99.90;;;;;;5074774;28;20140;-64
2022/05/01 02:47:17;;;;;;;17.77;14.23;;;7.60;99.90;;;;;;5075119;28;20492;-64
2022/05/01 02:49:42;;;;;;;16.05;14.05;;;7.60;99.90;;;;;;5074262;28;20136;-64
2022/05/01 02:52:09;;;;;;;15.95;13.65;;;7.60;99.90;;;;;;5074608;28;20053;-64
2022/05/01 02:54:35;;;;;;;17.02;13.32;;;7.50;99.90;;;;;;5074700;28;20049;-64
2022/05/01 02:57:01;;;;;;;17.80;13.50;;;7.60;99.90;;;;;;5074274;28;20063;-64
2022/05/01 02:59:26;;;;;;;15.80;13.57;;;7.50;99.90;;;;;;5075605;28;20057;-64
2022/05/01 03:01:54;;;;;;;15.93;13.63;;;7.50;99.90;;;;;;5073925;28;20048;-64
2022/05/01 03:04:19;;;;;;;15.75;12.60;;;7.50;99.90;;;;;;5075530;28;20059;-64
2022/05/01 03:06:45;;;;;;;17.50;13.30;;;7.50;99.90;;;;;;5075303;28;20373;-63
2022/05/01 03:09:10;;;;;;;18.05;14.18;;;7.60;99.90;;;;;;5075621;28;20519;-64
2022/05/01 03:11:36;;;;;;;20.10;13.68;;;7.50;99.90;;;;;;5075061;28;20542;-64
2022/05/01 03:14:03;;;;;;;18.02;14.73;;;7.50;99.90;;;;;;5074385;28;20052;-64
2022/05/01 03:16:29;;;;;;;17.95;13.52;;;7.50;99.90;;;;;;5073270;28;20166;-64
2022/05/01 03:24:23;;;;;;;20.13;14.15;;;7.50;99.90;;;;;;5075373;28;20154;-64
2022/05/01 03:26:48;;;;;;;21.48;14.80;;;7.50;99.90;;;;;;5073789;28;20110;-64
2022/05/01 03:29:15;;;;;;;22.52;15.75;;;7.50;99.90;;;;;;5074464;28;20052;-64
2022/05/01 03:31:40;;;;;;;20.58;14.90;;;7.50;99.90;;;;;;5074104;28;20060;-64
2022/05/01 03:34:06;;;;;;;18.33;14.13;;;7.50;99.90;;;;;;5074752;28;20071;-64
2022/05/01 03:36:32;;;;;;;19.33;13.82;;;7.50;99.90;;;;;;5073440;28;20048;-64
2022/05/01 03:38:59;;;;;;;21.58;14.60;;;7.50;99.90;;;;;;5075265;28;20080;-64
2022/05/01 03:41:26;;;;;;;17.65;13.88;;;7.50;99.90;;;;;;5074316;28;20052;-64
2022/05/01 03:43:52;;;;;;;16.80;13.63;;;7.40;99.90;;;;;;5074570;28;20447;-64
2022/05/01 03:46:22;;;;;;;17.95;14.13;;;7.50;99.90;;;;;;5073929;28;20469;-64
2022/05/01 03:48:48;;;;;;;18.50;13.90;;;7.40;99.90;;;;;;5074774;28;20070;-64
2022/05/01 03:51:13;;;;;;;18.17;13.27;;;7.40;99.90;;;;;;5073653;28;20052;-64
2022/05/01 03:53:39;;;;;;;17.23;13.75;;;7.40;99.90;;;;;;5073895;28;20068;-63
2022/05/01 03:56:05;;;;;;;18.95;15.13;;;7.30;99.90;;;;;;5074043;28;20158;-64
2022/05/01 03:58:31;;;;;;;18.25;14.48;;;7.30;99.90;;;;;;5074741;28;20055;-65
2022/05/01 04:00:58;;;;;;;19.77;14.80;;;7.30;99.90;;;;;;5073864;28;20044;-64
2022/05/01 04:03:24;;;;;;;17.75;14.63;;;7.30;99.90;;;;;;5073794;28;20365;-64
2022/05/01 04:05:49;;;;;;;19.55;14.35;;;7.30;99.90;;;;;;5074241;28;20055;-64
2022/05/01 04:08:15;;;;;;;19.40;14.98;;;7.30;99.90;;;;;;5074310;28;20490;-64
2022/05/01 04:10:42;;;;;;;18.55;14.40;;;7.30;99.90;;;;;;5073862;28;20056;-64
2022/05/01 04:13:09;;;;;;;17.63;14.57;;;7.30;99.90;;;;;;5074294;28;20040;-64
2022/05/01 04:15:36;;;;;;;17.55;14.05;;;7.30;99.90;;;;;;5073645;28;20370;-65
2022/05/01 04:18:03;;;;;;;18.48;14.32;;;7.30;99.90;;;;;;5074196;28;20144;-64
2022/05/01 04:20:29;;;;;;;17.10;14.18;;;7.20;99.90;;;;;;5074589;28;20056;-63
2022/05/01 04:22:55;;;;;;;18.88;14.45;;;7.30;99.90;;;;;;5073678;28;20059;-64
2022/05/01 04:25:26;;;;;;;17.35;14.43;;;7.30;99.90;;;;;;5072846;28;20064;-64
2022/05/01 04:27:57;;;;;;;20.58;14.43;;;7.30;99.90;;;;;;5073423;28;20151;-64
2022/05/01 04:30:22;;;;;;;16.30;13.60;;;7.30;99.90;;;;;;5073524;28;20052;-65
2022/05/01 04:33:02;;;;;;;16.23;13.55;;;7.20;99.90;;;;;;5073223;28;20056;-64
2022/05/01 04:35:33;;;;;;;15.38;12.05;;;7.20;99.90;;;;;;5073763;28;20052;-64
2022/05/01 04:38:03;;;;;;;18.42;13.15;;;7.30;99.90;;;;;;5073446;28;20056;-63
2022/05/01 04:40:34;;;;;;;15.15;12.88;;;7.20;99.90;;;;;;5073353;28;20424;-64
2022/05/01 04:43:02;;;;;;;17.63;13.88;;;7.30;99.90;;;;;;5073708;28;20049;-64
2022/05/01 04:45:29;;;;;;;18.08;14.00;;;7.30;99.90;;;;;;5073295;28;20056;-64
2022/05/01 04:47:55;;;;;;;17.92;14.35;;;7.30;99.90;;;;;;5073290;28;20118;-64
2022/05/01 04:50:21;;;;;;;17.80;14.18;;;7.20;99.90;;;;;;5073362;28;20484;-64
2022/05/01 04:52:46;;;;;;;17.85;14.55;;;7.20;99.90;;;;;;5073224;28;20048;-64
2022/05/01 04:55:12;;;;;;;19.00;13.38;;;7.20;99.90;;;;;;5073158;28;20515;-64
2022/05/01 04:57:38;;;;;;;18.60;15.27;;;7.20;99.90;;;;;;5071869;28;20053;-64
2022/05/01 05:00:05;;;;;;;19.08;14.27;;;7.20;99.90;;;;;;5073233;28;20148;-63
2022/05/01 05:02:44;;;;;;;18.13;13.30;;;7.20;99.90;;;;;;5072470;28;20485;-64
2022/05/01 05:05:11;;;;;;;15.63;12.88;;;7.30;99.90;;;;;;5072999;28;20127;-64
2022/05/01 05:07:38;;;;;;;19.10;14.32;;;7.20;99.90;;;;;;5072826;28;20485;-64
2022/05/01 05:10:05;;;;;;;16.48;13.35;;;7.20;99.90;;;;;;5071875;28;20056;-63
2022/05/01 05:12:31;;;;;;;20.65;13.75;;;7.30;99.90;;;;;;5073101;28;20450;-64
2022/05/01 05:15:00;;;;;;;17.38;13.60;;;7.30;99.90;;;;;;5071723;28;20048;-64
2022/05/01 05:17:26;;;;;;;16.17;13.40;;;7.30;99.90;;;;;;5071146;28;20048;-64
2022/05/01 05:19:54;;;;;;;17.08;13.73;;;7.30;99.90;;;;;;5072984;28;20049;-64
2022/05/01 05:22:19;;;;;;;19.13;13.40;;;7.40;99.90;;;;;;5072765;28;20140;-64
2022/05/01 05:24:45;;;;;;;16.58;13.30;;;7.40;99.90;;;;;;5073199;28;20463;-64
2022/05/01 05:27:11;;;;;;;15.88;12.23;;;7.40;99.90;;;;;;5072459;28;20477;-64
2022/05/01 05:29:38;;;;;;;16.20;12.63;;;7.50;99.90;;;;;;5073264;28;20135;-65
2022/05/01 05:32:04;;;;;;;14.95;11.82;;;7.60;99.90;;;;;;5072045;28;20066;-64
2022/05/01 05:34:30;;;;;;;17.65;13.20;;;7.60;99.90;;;;;;5071647;28;20051;-64
2022/05/01 05:36:56;;;;;;;14.32;12.82;;;7.70;99.90;;;;;;5072241;28;20140;-64
2022/05/01 05:39:21;;;;;;;15.43;13.02;;;7.70;99.90;;;;;;5071695;28;20064;-64
2022/05/01 05:41:47;;;;;;;17.13;13.38;;;7.70;99.90;;;;;;5070998;28;20052;-64
2022/05/01 05:44:12;;;;;;;17.58;13.48;;;7.70;99.90;;;;;;5072735;28;20095;-64
2022/05/01 05:46:38;;;;;;;17.02;12.65;;;7.80;99.90;;;;;;5071044;28;20048;-64
2022/05/01 05:49:03;;;;;;;15.65;13.82;;;7.80;99.90;;;;;;5071752;28;20341;-64
2022/05/01 05:51:29;;;;;;;17.05;13.52;;;7.90;99.90;;;;;;5070052;28;20072;-64
2022/05/01 05:53:56;;;;;;;16.77;12.30;;;7.90;99.90;;;;;;5071353;28;20048;-64
2022/05/01 05:56:22;;;;;;;17.50;12.30;;;7.90;99.90;;;;;;5070968;28;20060;-64
2022/05/01 05:58:48;;;;;;;17.52;12.63;;;8.00;99.90;;;;;;5072645;28;20075;-64
2022/05/01 06:01:14;;;;;;;16.92;12.98;;;8.00;99.90;;;;;;5071785;28;20060;-63
2022/05/01 06:03:40;;;;;;;15.48;12.95;;;8.10;99.90;;;;;;5073037;28;20439;-63
2022/05/01 06:06:05;;;;;;;14.98;12.23;;;8.10;99.90;;;;;;5072483;28;20059;-64
2022/05/01 06:08:31;;;;;;;16.95;12.98;;;8.20;99.90;;;;;;5072186;28;20127;-64
2022/05/01 06:10:57;;;;;;;17.67;13.25;;;8.20;99.90;;;;;;5070773;28;20086;-64
2022/05/01 06:13:22;;;;;;;19.33;12.38;;;8.30;99.90;;;;;;5070843;28;20053;-64
2022/05/01 06:15:48;;;;;;;13.80;12.23;;;8.40;99.90;;;;;;5071684;28;20159;-64
2022/05/01 06:18:14;;;;;;;14.80;11.82;;;8.40;99.90;;;;;;5071982;28;20048;-64
2022/05/01 06:20:40;;;;;;;15.20;11.77;;;8.40;99.90;;;;;;5071872;28;20447;-64
2022/05/01 06:23:06;;;;;;;15.07;12.18;;;8.50;99.90;;;;;;5072319;28;20048;-64
2022/05/01 06:25:32;;;;;;;13.32;11.70;;;8.60;99.90;;;;;;5072392;28;20178;-64
2022/05/01 06:27:59;;;;;;;15.18;12.05;;;8.60;99.90;;;;;;5071361;28;20048;-64
2022/05/01 06:30:24;;;;;;;16.75;12.63;;;8.70;99.90;;;;;;5071864;28;20048;-64
2022/05/01 06:32:50;;;;;;;13.63;11.80;;;8.70;99.90;;;;;;5071738;28;20067;-64
2022/05/01 06:35:17;;;;;;;14.27;12.30;;;8.70;99.90;;;;;;5072010;28;20129;-64
2022/05/01 06:37:44;;;;;;;13.43;11.57;;;8.70;99.90;;;;;;5072126;28;20094;-64
2022/05/01 06:40:09;;;;;;;14.23;11.20;;;8.70;99.90;;;;;;5071763;28;20079;-64
2022/05/01 06:42:35;;;;;;;15.18;12.38;;;8.70;99.90;;;;;;5070434;28;20052;-64
2022/05/01 06:45:01;;;;;;;13.63;11.65;;;8.70;99.90;;;;;;5072012;28;20185;-64
2022/05/01 06:47:27;;;;;;;14.20;11.60;;;8.80;99.90;;;;;;5071767;28;20159;-63
2022/05/01 06:49:52;;;;;;;14.18;11.82;;;8.80;99.90;;;;;;5071998;28;20153;-64
2022/05/01 06:52:25;;;;;;;12.90;11.60;;;8.80;99.90;;;;;;5070356;28;20056;-63
2022/05/01 06:54:52;;;;;;;12.48;10.65;;;8.80;99.90;;;;;;5070441;28;20476;-64
2022/05/01 06:57:18;;;;;;;17.35;11.63;;;8.90;99.90;;;;;;5071472;28;20476;-63
2022/05/01 06:59:44;;;;;;;14.75;11.23;;;8.90;99.90;;;;;;5071787;28;20523;-64
2022/05/01 07:02:09;;;;;;;12.80;11.27;;;9.00;99.90;;;;;;5071493;28;20052;-64
2022/05/01 07:04:35;;;;;;;16.85;12.95;;;9.00;99.90;;;;;;5075288;28;20055;-65
2022/05/01 07:07:01;;;;;;;16.30;11.70;;;9.10;99.90;;;;;;5074350;28;20056;-64
2022/05/01 07:09:26;;;;;;;14.75;11.48;;;9.10;99.90;;;;;;5074339;28;20493;-64
2022/05/01 07:11:52;;;;;;;14.90;12.38;;;9.20;99.90;;;;;;5074353;28;20469;-64
2022/05/01 07:14:17;;;;;;;14.23;11.60;;;9.20;99.90;;;;;;5074190;28;20515;-64
2022/05/01 07:16:43;;;;;;;13.65;12.25;;;9.30;99.90;;;;;;5074648;28;20189;-64
2022/05/01 07:19:08;;;;;;;15.82;11.93;;;9.30;99.90;;;;;;5074925;28;20102;-64
2022/05/01 07:21:34;;;;;;;16.80;12.07;;;9.40;99.90;;;;;;5074109;28;20053;-64
2022/05/01 07:24:00;;;;;;;13.68;11.30;;;9.50;99.90;;;;;;5075107;28;20124;-64
2022/05/01 07:26:33;;;;;;;12.57;11.05;;;9.60;99.90;;;;;;5074028;28;20091;-64
2022/05/01 07:28:59;;;;;;;11.80;10.60;;;9.70;99.90;;;;;;5074677;28;20485;-64
2022/05/01 07:31:25;;;;;;;11.63;9.63;;;9.90;99.90;;;;;;5073353;28;20088;-65
2022/05/01 07:33:51;;;;;;;10.75;9.48;;;10.00;99.90;;;;;;5073440;28;20123;-64
2022/05/01 07:36:19;;;;;;;13.35;9.98;;;10.00;99.90;;;;;;5074457;28;20054;-65
2022/05/01 07:38:45;;;;;;;12.00;10.48;;;10.30;99.90;;;;;;5075132;28;20052;-64
2022/05/01 07:41:10;;;;;;;9.18;8.25;;;10.30;99.90;;;;;;5073442;28;20119;-64
2022/05/01 07:43:36;;;;;;;11.30;8.52;;;10.40;99.90;;;;;;5075151;28;20098;-64
2022/05/01 07:46:02;;;;;;;10.52;8.38;;;10.60;99.90;;;;;;5074232;28;20054;-64
2022/05/01 07:48:28;;;;;;;10.73;7.57;;;10.90;99.90;;;;;;5074957;28;20055;-64
2022/05/01 07:50:53;;;;;;;9.60;7.60;;;11.00;99.90;;;;;;5074152;28;20056;-65
2022/05/01 07:53:19;;;;;;;11.50;8.95;;;11.20;99.90;;;;;;5073360;28;20426;-64
2022/05/01 07:55:44;;;;;;;12.20;8.85;;;11.30;99.90;;;;;;5074016;28;20044;-64
2022/05/01 07:58:10;;;;;;;11.15;8.68;;;11.40;99.90;;;;;;5074258;28;20049;-65
2022/05/01 08:00:36;;;;;;;10.25;8.68;;;11.60;99.90;;;;;;5072342;28;20048;-64
2022/05/01 08:05:45;;;;;;;10.20;8.43;;;11.60;99.90;;;;;;5074260;28;20370;-65
2022/05/01 08:08:11;;;;;;;10.43;8.50;;;11.80;99.90;;;;;;5072997;28;20048;-63
2022/05/01 08:10:37;;;;;;;11.40;8.68;;;11.90;99.90;;;;;;5074055;28;20051;-64
2022/05/01 08:13:02;;;;;;;11.35;8.70;;;11.90;99.90;;;;;;5073777;28;20053;-64
2022/05/01 08:15:28;;;;;;;10.40;8.00;;;12.00;99.90;;;;;;5072466;28;20059;-64
2022/05/01 08:17:54;;;;;;;7.63;6.85;;;12.10;99.90;;;;;;5073852;28;20099;-64
2022/05/01 08:23:06;;;;;;;10.50;7.90;;;12.40;99.90;;;;;;5074242;28;20041;-65
2022/05/01 08:25:32;;;;;;;9.85;7.60;;;12.30;99.90;;;;;;5073591;28;20048;-64
2022/05/01 08:27:57;;;;;;;10.85;7.50;;;12.20;99.90;;;;;;5073795;28;20105;-65
2022/05/01 08:30:23;;;;;;;9.95;8.20;;;12.30;99.90;;;;;;5073547;28;20056;-65
2022/05/01 08:32:48;;;;;;;10.68;8.38;;;12.50;99.90;;;;;;5073481;28;20049;-64
2022/05/01 08:35:14;;;;;;;10.80;8.18;;;12.60;99.90;;;;;;5072681;28;20048;-65
2022/05/01 08:37:40;;;;;;;7.78;6.93;;;12.70;99.90;;;;;;5073735;28;20491;-64
2022/05/01 08:40:07;;;;;;;8.60;7.35;;;12.70;99.90;;;;;;5073779;28;20119;-64
2022/05/01 08:42:36;;;;;;;7.90;7.10;;;12.80;99.90;;;;;;5073629;28;20051;-64
2022/05/01 08:45:03;;;;;;;8.98;7.07;;;12.80;99.90;;;;;;5073757;28;20416;-64
2022/05/01 08:47:41;;;;;;;8.77;7.32;;;12.80;99.90;;;;;;5073227;28;20071;-65
2022/05/01 08:50:09;;;;;;;8.75;7.85;;;12.90;99.90;;;;;;5073513;28;20393;-65
2022/05/01 08:52:37;;;;;;;8.35;7.22;;;13.00;99.90;;;;;;5073482;28;20048;-64
2022/05/01 08:55:05;;;;;;;9.48;8.43;;;13.10;99.90;;;;;;5073089;28;20048;-65
2022/05/01 08:57:33;;;;;;;10.85;7.88;;;13.00;99.90;;;;;;5073021;28;20060;-65
2022/05/01 08:59:58;;;;;;;9.98;8.10;;;13.10;99.90;;;;;;5073135;28;20048;-64
2022/05/01 09:02:25;;;;;;;10.95;7.75;;;13.20;99.90;;;;;;5072671;28;20135;-65
2022/05/01 09:04:50;;;;;;;8.77;7.32;;;13.30;99.90;;;;;;5073080;28;20044;-65
2022/05/01 09:07:16;;;;;;;8.52;7.63;;;13.40;99.90;;;;;;5073419;28;20135;-64
2022/05/01 09:09:42;;;;;;;9.77;7.22;;;13.40;99.90;;;;;;5073283;28;20117;-65
2022/05/01 09:14:53;;;;;;;8.50;7.40;;;13.40;99.90;;;;;;5071439;28;20059;-65
2022/05/01 09:17:21;;;;;;;8.77;7.05;;;13.40;99.90;;;;;;5072451;28;20068;-65
2022/05/01 09:19:49;;;;;;;10.75;7.78;;;13.30;99.90;;;;;;5072803;28;20148;-65
2022/05/01 09:22:16;;;;;;;8.02;7.15;;;13.20;99.90;;;;;;5071733;28;20110;-65
2022/05/01 09:24:42;;;;;;;7.50;6.80;;;13.30;99.90;;;;;;5072727;28;20102;-65
2022/05/01 09:27:24;;;;;;;10.20;7.38;;;13.30;99.90;;;;;;5071863;28;20114;-65
2022/05/01 09:30:05;;;;;;;8.77;7.20;;;13.40;99.90;;;;;;5071307;28;20069;-65
2022/05/01 09:32:36;;;;;;;8.02;7.20;;;13.60;99.90;;;;;;5072229;28;20461;-64
2022/05/01 09:35:03;;;;;;;8.52;6.70;;;13.70;99.90;;;;;;5072810;28;20135;-65
2022/05/01 09:37:29;;;;;;;8.27;6.72;;;13.90;99.90;;;;;;5072576;28;20068;-65
2022/05/01 09:39:54;;;;;;;7.28;6.50;;;14.10;99.90;;;;;;5071199;28;20049;-65
2022/05/01 09:42:21;;;;;;;8.90;6.80;;;14.20;99.90;;;;;;5071472;28;20051;-65
2022/05/01 09:45:07;;;;;;;9.25;6.50;;;14.30;99.90;;;;;;5072556;28;20481;-65
2022/05/01 09:47:41;;;;;;;6.30;5.70;;;14.20;99.90;;;;;;5071943;28;20131;-65
2022/05/01 09:50:07;;;;;;;7.60;6.00;;;14.20;99.90;;;;;;5072744;28;20044;-65
2022/05/01 09:52:57;;;;;;;5.93;5.43;;;14.20;99.90;;;;;;5072670;28;20141;-65
2022/05/01 09:55:23;;;;;;;10.02;7.20;;;14.40;97.00;;;;;;5071400;28;20485;-64
2022/05/01 09:57:49;;;;;;;9.07;6.38;;;14.70;99.90;;;;;;5070970;28;20059;-64
2022/05/01 10:00:35;;;;;;;6.97;6.00;;;14.80;99.90;;;;;;5072640;28;20048;-65
2022/05/01 10:03:18;;;;;;;6.75;5.68;;;14.90;91.30;;;;;;5072962;28;20098;-66
2022/05/01 10:05:43;;;;;;;6.43;5.82;;;14.70;79.90;;;;;;5071800;28;20396;-65
2022/05/01 10:08:10;;;;;;;9.80;6.60;;;14.50;97.90;;;;;;5054248;28;20127;-65
2022/05/01 10:10:36;;;;;;;6.85;6.18;;;14.50;95.30;;;;;;5072848;28;20056;-65
2022/05/01 10:13:02;;;;;;;7.55;6.22;;;14.30;96.70;;;;;;5072792;28;20053;-65
2022/05/01 10:15:28;;;;;;;8.60;5.80;;;14.40;97.90;;;;;;5071076;28;20060;-66
2022/05/01 10:17:53;;;;;;;7.13;5.82;;;14.50;97.10;;;;;;5070799;28;20072;-65
2022/05/01 10:20:21;;;;;;;6.43;5.18;;;14.70;96.50;;;;;;5072578;28;20048;-65
2022/05/01 10:22:48;;;;;;;6.00;5.43;;;14.80;90.90;;;;;;5070895;28;20058;-65
2022/05/01 10:25:17;;;;;;;6.78;5.50;;;15.00;88.00;;;;;;5072537;28;20054;-65
2022/05/01 10:28:05;;;;;;;6.22;5.43;;;15.00;79.60;;;;;;5072390;28;20091;-65
2022/05/01 10:33:39;;;;;;;6.85;5.72;;;15.10;78.80;;;;;;5072117;28;20041;-65
2022/05/01 10:36:24;;;;;;;8.05;5.75;;;15.50;92.20;;;;;;5072197;28;20454;-65
2022/05/01 10:39:14;;;;;;;8.05;5.75;;;15.80;80.10;;;;;;5075938;28;20094;-65
2022/05/01 10:41:44;;;;;;;5.55;4.35;;;16.00;68.70;;;;;;5075977;28;20080;-65
2022/05/01 10:44:36;;;;;;;4.93;4.43;;;16.20;70.80;;;;;;5075699;28;20071;-65
2022/05/01 10:47:13;;;;;;;5.35;4.68;;;16.30;66.00;;;;;;5075505;28;20045;-66
2022/05/01 10:49:47;;;;;;;5.03;4.38;;;16.50;64.80;;;;;;5074716;28;20049;-64
2022/05/01 10:52:15;;;;;;;4.78;4.38;;;16.40;61.50;;;;;;5075769;28;20059;-65
2022/05/01 10:54:45;;;;;;;5.30;4.50;;;16.50;63.20;;;;;;5075887;28;20048;-66
2022/05/01 10:57:13;;;;;;;5.85;4.88;;;16.40;63.60;;;;;;5075878;28;20052;-65
2022/05/01 10:59:46;;;;;;;7.45;5.43;;;16.60;65.50;;;;;;5075881;28;20385;-65
2022/05/01 11:02:24;;;;;;;6.45;4.90;;;16.70;65.30;;;;;;5074327;28;20358;-65
2022/05/01 11:04:52;;;;;;;4.45;4.05;;;16.70;63.90;;;;;;5075516;28;20052;-66
2022/05/01 11:07:19;;;;;;;5.90;4.47;;;16.80;64.90;;;;;;5075241;28;20535;-66
2022/05/01 11:09:47;;;;;;;5.03;4.53;;;16.60;63.40;;;;;;5074412;28;20044;-65
2022/05/01 11:12:15;;;;;;;6.65;3.95;;;16.50;62.80;;;;;;5075387;28;20057;-65
2022/05/01 11:14:40;;;;;;;5.70;4.68;;;16.50;62.60;;;;;;5075282;28;20044;-65
2022/05/01 11:17:09;;;;;;;4.97;4.47;;;16.30;63.20;;;;;;5074631;28;20522;-65
2022/05/01 11:19:51;;;;;;;5.45;4.40;;;16.10;61.80;;;;;;5075455;28;20132;-65
2022/05/01 11:22:25;;;;;;;4.65;4.15;;;15.80;61.10;;;;;;5075337;28;20149;-64
2022/05/01 11:24:50;;;;;;;5.85;4.60;;;15.40;62.40;;;;;;5074979;28;20052;-65
2022/05/01 11:27:18;;;;;;;5.53;4.55;;;15.10;63.30;;;;;;5075185;28;20059;-65
2022/05/01 11:30:06;;;;;;;7.65;4.53;;;15.10;64.50;;;;;;5074893;28;20056;-65
2022/05/01 11:32:45;;;;;;;6.47;4.50;;;15.00;63.90;;;;;;5074480;28;20052;-65
2022/05/01 11:35:12;;;;;;;5.88;4.13;;;14.80;64.40;;;;;;5075149;28;20373;-65
2022/05/01 11:38:08;;;;;;;6.72;4.70;;;14.60;66.10;;;;;;5073218;28;20052;-65
2022/05/01 11:40:34;;;;;;;5.00;4.32;;;14.50;64.80;;;;;;5073593;28;20048;-65
2022/05/01 11:43:18;;;;;;;6.32;4.95;;;14.50;67.10;;;;;;5074576;28;20399;-65
2022/05/01 11:45:46;;;;;;;5.60;5.05;;;14.50;66.50;;;;;;5074594;28;20060;-65
2022/05/01 11:48:14;;;;;;;5.10;4.60;;;14.50;67.10;;;;;;5072475;28;20048;-65
2022/05/01 11:50:40;;;;;;;7.03;5.03;;;14.50;67.40;;;;;;5073537;28;20059;-65
2022/05/01 11:53:18;;;;;;;7.60;4.80;;;14.50;67.60;;;;;;5074684;28;20059;-65
2022/05/01 12:04:22;;;;;;;6.25;4.38;;;14.60;66.40;;;;;;5074340;28;20158;-65
2022/05/01 12:06:47;;;;;;;4.88;3.85;;;14.70;63.80;;;;;;5074329;28;20131;-65
2022/05/01 12:09:17;;;;;;;5.03;3.85;;;14.80;64.90;;;;;;5074410;28;20091;-65
2022/05/01 12:11:46;;;;;;;5.95;3.42;;;14.90;64.10;;;;;;5074412;28;20079;-65
2022/05/01 12:14:13;;;;;;;4.78;3.90;;;15.00;64.00;;;;;;5074144;28;20519;-65
2022/05/01 12:16:40;;;;;;;4.10;3.70;;;15.10;65.50;;;;;;5073352;28;20477;-65
2022/05/01 12:19:07;;;;;;;4.47;4.07;;;15.20;63.30;;;;;;5074290;28;20047;-65
2022/05/01 12:21:34;;;;;;;6.90;4.50;;;15.30;62.20;;;;;;5072947;28;20052;-65
2022/05/01 12:24:11;;;;;;;4.43;3.80;;;15.30;62.40;;;;;;5073892;28;20160;-65
2022/05/01 12:26:54;;;;;;;4.60;4.20;;;15.40;61.80;;;;;;5074019;28;20041;-65
2022/05/01 12:29:21;;;;;;;4.35;3.95;;;15.40;62.20;;;;;;5073950;28;20063;-65
2022/05/01 12:32:11;;;;;;;4.60;3.53;;;15.40;61.90;;;;;;5072174;28;20062;-65
2022/05/01 12:34:49;;;;;;;4.25;3.85;;;15.50;58.60;;;;;;5073953;28;20121;-65
2022/05/01 12:37:20;;;;;;;4.00;3.60;;;15.50;60.10;;;;;;5068373;28;20579;-65
2022/05/01 12:43:50;;;;;;;6.80;4.10;;;15.40;59.80;;;;;;5060773;28;20087;-65
2022/05/01 12:45:53;;;;;;;5.70;3.90;;;15.80;59.60;;;;;;5052414;28;20477;-63
2022/05/01 12:48:20;;;;;;;5.13;3.55;;;15.90;58.00;;;;;;5054996;28;20045;-63
2022/05/01 12:50:51;;;;;;;4.80;3.72;;;16.00;57.60;;;;;;5057010;28;20136;-63
2022/05/01 12:53:22;;;;;;;4.05;3.33;;;16.00;57.00;;;;;;5060318;28;20048;-65
2022/05/01 12:55:48;;;;;;;5.47;4.05;;;16.00;56.30;;;;;;5066788;28;20071;-65
2022/05/01 12:58:13;;;;;;;5.05;3.78;;;16.00;57.10;;;;;;5066223;28;20536;-65
2022/05/01 13:00:45;;;;;;;5.35;4.85;;;15.90;57.20;;;;;;5052247;28;20045;-66
2022/05/01 13:03:25;;;;;;;4.07;3.67;;;15.90;57.20;;;;;;5058209;28;20040;-65
2022/05/01 13:05:59;;;;;;;3.83;3.50;;;15.90;56.70;;;;;;5061884;28;20770;-65
2022/05/01 13:08:25;;;;;;;4.53;3.72;;;15.90;56.80;;;;;;5061615;28;20084;-64
2022/05/01 13:11:17;;;;;;;5.32;3.75;;;15.90;57.00;;;;;;5052051;28;20053;-65
2022/05/01 13:13:59;;;;;;;4.35;3.65;;;16.00;57.00;;;;;;5051423;28;20052;-65
2022/05/01 13:16:39;;;;;;;4.20;3.28;;;16.00;56.40;;;;;;5055475;28;20124;-64
2022/05/01 13:19:09;;;;;;;4.05;3.65;;;15.90;57.20;;;;;;5058556;28;20056;-64
2022/05/01 13:21:43;;;;;;;4.13;3.72;;;16.00;57.20;;;;;;5055372;28;20056;-65